createdAt,value
2017-06-22T00:00:15.749Z,0
2017-06-22T00:01:17.012Z,0
2017-06-22T00:02:18.272Z,0
2017-06-22T00:03:19.518Z,0
2017-06-22T00:04:20.765Z,0
2017-06-22T00:05:22.086Z,0
2017-06-22T00:06:23.487Z,0
2017-06-22T00:07:24.718Z,0
2017-06-22T00:08:25.960Z,0
2017-06-22T00:09:27.208Z,0
2017-06-22T00:10:28.569Z,0
2017-06-22T00:11:29.854Z,0
2017-06-22T00:12:31.116Z,0
2017-06-22T00:13:32.374Z,0
2017-06-22T00:14:33.629Z,0
2017-06-22T00:15:34.865Z,0
2017-06-22T00:16:36.179Z,0
2017-06-22T00:17:37.387Z,0
2017-06-22T00:18:38.637Z,0
2017-06-22T00:19:39.878Z,0
2017-06-22T00:20:41.137Z,0
2017-06-22T00:21:42.436Z,0
2017-06-22T00:22:43.685Z,0
2017-06-22T00:23:45.119Z,0
2017-06-22T00:24:46.271Z,0
2017-06-22T00:25:47.549Z,0
2017-06-22T00:26:48.794Z,0
2017-06-22T00:27:50.023Z,0
2017-06-22T00:28:51.604Z,0
2017-06-22T00:29:52.773Z,0
2017-06-22T00:30:54.016Z,0
2017-06-22T00:31:55.260Z,0
2017-06-22T00:32:56.504Z,0
2017-06-22T00:33:57.761Z,0
2017-06-22T00:34:59.040Z,0
2017-06-22T00:36:00.295Z,0
2017-06-22T00:37:01.582Z,0
2017-06-22T00:38:02.828Z,0
2017-06-22T00:39:04.086Z,0
2017-06-22T00:40:05.352Z,0
2017-06-22T00:41:06.636Z,0
2017-06-22T00:42:07.903Z,0
2017-06-22T00:43:09.199Z,0
2017-06-22T00:44:10.452Z,0
2017-06-22T00:45:11.715Z,0
2017-06-22T00:46:12.945Z,0
2017-06-22T00:47:14.202Z,0
2017-06-22T00:48:15.531Z,0
2017-06-22T00:49:16.782Z,0
2017-06-22T00:50:18.021Z,0
2017-06-22T00:51:19.275Z,0
2017-06-22T00:52:20.593Z,0
2017-06-22T00:53:21.858Z,0
2017-06-22T00:54:23.117Z,0
2017-06-22T00:55:24.364Z,0
2017-06-22T00:56:25.660Z,0
2017-06-22T00:57:26.915Z,0
2017-06-22T00:58:28.149Z,0
2017-06-22T00:59:29.493Z,0
2017-06-22T01:00:30.721Z,0
2017-06-22T01:01:31.966Z,0
2017-06-22T01:02:33.227Z,0
2017-06-22T01:03:34.478Z,0
2017-06-22T01:04:35.747Z,0
2017-06-22T01:05:36.994Z,0
2017-06-22T01:06:38.301Z,0
2017-06-22T01:07:39.552Z,0
2017-06-22T01:08:40.808Z,0
2017-06-22T01:09:42.053Z,0
2017-06-22T01:10:43.302Z,0
2017-06-22T01:11:44.678Z,0
2017-06-22T01:12:45.944Z,0
2017-06-22T01:13:47.218Z,0
2017-06-22T01:14:48.464Z,0
2017-06-22T01:15:49.693Z,0
2017-06-22T01:16:50.943Z,0
2017-06-22T01:17:52.191Z,0
2017-06-22T01:18:53.430Z,0
2017-06-22T01:19:54.679Z,0
2017-06-22T01:20:55.940Z,0
2017-06-22T01:21:57.185Z,0
2017-06-22T01:22:58.442Z,0
2017-06-22T01:23:59.775Z,0
2017-06-22T01:25:00.974Z,0
2017-06-22T01:26:02.272Z,0
2017-06-22T01:27:03.517Z,0
2017-06-22T01:28:04.757Z,0
2017-06-22T01:29:05.998Z,0
2017-06-22T01:30:07.251Z,0
2017-06-22T01:31:08.608Z,0
2017-06-22T01:32:09.871Z,0
2017-06-22T01:33:11.132Z,0
2017-06-22T01:34:12.374Z,0
2017-06-22T01:35:13.626Z,0
2017-06-22T01:36:14.957Z,0
2017-06-22T01:37:16.321Z,0
2017-06-22T01:38:17.594Z,0
2017-06-22T01:39:18.858Z,0
2017-06-22T01:40:20.131Z,0
2017-06-22T01:41:21.348Z,0
2017-06-22T01:42:22.654Z,0
2017-06-22T01:43:23.918Z,0
2017-06-22T01:44:25.184Z,0
2017-06-22T01:45:26.434Z,0
2017-06-22T01:46:27.745Z,0
2017-06-22T01:47:29.044Z,0
2017-06-22T01:48:30.285Z,0
2017-06-22T01:49:31.535Z,0
2017-06-22T01:50:32.785Z,0
2017-06-22T01:51:34.072Z,0
2017-06-22T01:52:35.346Z,0
2017-06-22T01:53:36.593Z,0
2017-06-22T01:54:37.959Z,0
2017-06-22T01:55:39.220Z,0
2017-06-22T01:56:40.464Z,0
2017-06-22T01:57:41.710Z,0
2017-06-22T01:58:42.958Z,0
2017-06-22T01:59:44.225Z,0
2017-06-22T02:00:45.454Z,0
2017-06-22T02:01:46.715Z,0
2017-06-22T02:02:48.078Z,0
2017-06-22T02:03:49.354Z,0
2017-06-22T02:04:50.606Z,0
2017-06-22T02:05:52.019Z,0
2017-06-22T02:06:53.266Z,0
2017-06-22T02:07:54.533Z,0
2017-06-22T02:08:55.804Z,0
2017-06-22T02:09:57.070Z,0
2017-06-22T02:10:58.300Z,0
2017-06-22T02:11:59.543Z,0
2017-06-22T02:13:00.826Z,0
2017-06-22T02:14:02.219Z,0
2017-06-22T02:15:03.450Z,0
2017-06-22T02:16:04.714Z,0
2017-06-22T02:17:05.980Z,0
2017-06-22T02:18:07.228Z,0
2017-06-22T02:19:08.481Z,0
2017-06-22T02:20:09.738Z,0
2017-06-22T02:21:10.980Z,0
2017-06-22T02:22:12.247Z,0
2017-06-22T02:23:13.506Z,4
2017-06-22T02:24:14.796Z,4
2017-06-22T02:25:16.041Z,4
2017-06-22T02:26:17.357Z,0
2017-06-22T02:27:18.561Z,4
2017-06-22T02:28:19.844Z,4
2017-06-22T02:29:21.117Z,4
2017-06-22T02:30:22.342Z,4
2017-06-22T02:31:23.589Z,4
2017-06-22T02:32:24.838Z,4
2017-06-22T02:33:26.189Z,4
2017-06-22T02:34:27.449Z,8
2017-06-22T02:35:28.700Z,8
2017-06-22T02:36:29.946Z,8
2017-06-22T02:37:31.202Z,8
2017-06-22T02:38:32.460Z,12
2017-06-22T02:39:33.722Z,12
2017-06-22T02:40:35.030Z,12
2017-06-22T02:41:36.315Z,16
2017-06-22T02:42:37.556Z,16
2017-06-22T02:43:38.806Z,20
2017-06-22T02:44:40.212Z,20
2017-06-22T02:45:41.491Z,24
2017-06-22T02:46:42.708Z,24
2017-06-22T02:47:43.965Z,28
2017-06-22T02:48:45.241Z,32
2017-06-22T02:49:46.599Z,36
2017-06-22T02:50:47.936Z,40
2017-06-22T02:51:49.205Z,44
2017-06-22T02:52:50.448Z,52
2017-06-22T02:53:51.707Z,52
2017-06-22T02:54:52.946Z,60
2017-06-22T02:55:54.231Z,64
2017-06-22T02:56:55.459Z,72
2017-06-22T02:57:56.759Z,76
2017-06-22T02:58:58.046Z,84
2017-06-22T02:59:59.282Z,92
2017-06-22T03:01:00.518Z,104
2017-06-22T03:02:01.812Z,112
2017-06-22T03:03:03.073Z,120
2017-06-22T03:04:04.402Z,132
2017-06-22T03:05:05.658Z,144
2017-06-22T03:06:06.906Z,156
2017-06-22T03:07:08.177Z,168
2017-06-22T03:08:09.400Z,180
2017-06-22T03:09:10.717Z,192
2017-06-22T03:10:12.124Z,204
2017-06-22T03:11:13.369Z,220
2017-06-22T03:12:14.623Z,232
2017-06-22T03:13:15.887Z,244
2017-06-22T03:14:17.140Z,260
2017-06-22T03:15:18.409Z,272
2017-06-22T03:16:19.696Z,288
2017-06-22T03:17:20.958Z,308
2017-06-22T03:18:22.210Z,328
2017-06-22T03:19:23.487Z,356
2017-06-22T03:20:24.730Z,380
2017-06-22T03:21:25.985Z,408
2017-06-22T03:22:27.242Z,440
2017-06-22T03:23:28.522Z,476
2017-06-22T03:24:29.770Z,516
2017-06-22T03:25:31.010Z,556
2017-06-22T03:26:32.258Z,596
2017-06-22T03:27:33.615Z,640
2017-06-22T03:28:34.865Z,688
2017-06-22T03:29:36.107Z,740
2017-06-22T03:30:37.352Z,792
2017-06-22T03:31:38.595Z,848
2017-06-22T03:32:39.867Z,896
2017-06-22T03:33:41.109Z,956
2017-06-22T03:34:42.478Z,1004
2017-06-22T03:35:43.721Z,1056
2017-06-22T03:36:44.959Z,1108
2017-06-22T03:37:46.211Z,1160
2017-06-22T03:38:47.454Z,1208
2017-06-22T03:39:48.814Z,1260
2017-06-22T03:40:50.092Z,1304
2017-06-22T03:41:51.339Z,1348
2017-06-22T03:42:52.589Z,1388
2017-06-22T03:43:53.846Z,1428
2017-06-22T03:44:55.089Z,1472
2017-06-22T03:45:56.576Z,1528
2017-06-22T03:46:57.897Z,1588
2017-06-22T03:47:59.150Z,1656
2017-06-22T03:49:00.394Z,1724
2017-06-22T03:50:01.663Z,1772
2017-06-22T03:51:02.881Z,1808
2017-06-22T03:52:04.131Z,1856
2017-06-22T03:53:05.367Z,1920
2017-06-22T03:54:06.616Z,2004
2017-06-22T03:55:08.016Z,2104
2017-06-22T03:56:09.252Z,2216
2017-06-22T03:57:10.733Z,2328
2017-06-22T03:58:12.022Z,2432
2017-06-22T03:59:13.317Z,2520
2017-06-22T04:00:14.570Z,2604
2017-06-22T04:01:15.813Z,2700
2017-06-22T04:02:17.080Z,2816
2017-06-22T04:03:18.347Z,2928
2017-06-22T04:04:19.594Z,3012
2017-06-22T04:05:20.843Z,3040
2017-06-22T04:06:22.100Z,3028
2017-06-22T04:07:23.353Z,2984
2017-06-22T04:08:24.588Z,2948
2017-06-22T04:09:25.958Z,2980
2017-06-22T04:10:27.210Z,3040
2017-06-22T04:11:28.448Z,3124
2017-06-22T04:12:29.747Z,3140
2017-06-22T04:13:30.985Z,3156
2017-06-22T04:14:32.230Z,3192
2017-06-22T04:15:33.558Z,3224
2017-06-22T04:16:34.749Z,3176
2017-06-22T04:17:35.994Z,3164
2017-06-22T04:18:37.251Z,3200
2017-06-22T04:19:38.496Z,3212
2017-06-22T04:20:39.759Z,3268
2017-06-22T04:21:41.011Z,3340
2017-06-22T04:22:42.368Z,3428
2017-06-22T04:23:43.614Z,3516
2017-06-22T04:24:44.892Z,3568
2017-06-22T04:25:46.140Z,3664
2017-06-22T04:26:47.391Z,3800
2017-06-22T04:27:48.658Z,3792
2017-06-22T04:28:49.907Z,3576
2017-06-22T04:29:51.187Z,3552
2017-06-22T04:30:52.465Z,3684
2017-06-22T04:31:53.718Z,3892
2017-06-22T04:32:54.979Z,4280
2017-06-22T04:33:56.226Z,4728
2017-06-22T04:34:57.536Z,5164
2017-06-22T04:35:58.794Z,5532
2017-06-22T04:37:00.043Z,5680
2017-06-22T04:38:01.301Z,5596
2017-06-22T04:39:02.549Z,5624
2017-06-22T04:40:03.829Z,5792
2017-06-22T04:41:05.058Z,5804
2017-06-22T04:42:06.324Z,5624
2017-06-22T04:43:07.594Z,5492
2017-06-22T04:44:08.852Z,5240
2017-06-22T04:45:10.101Z,5280
2017-06-22T04:46:11.359Z,5576
2017-06-22T04:47:12.646Z,5976
2017-06-22T04:48:13.959Z,6344
2017-06-22T04:49:15.207Z,6624
2017-06-22T04:50:16.470Z,6968
2017-06-22T04:51:17.697Z,7360
2017-06-22T04:52:19.095Z,7812
2017-06-22T04:53:20.422Z,8264
2017-06-22T04:54:21.673Z,8960
2017-06-22T04:55:22.932Z,9600
2017-06-22T04:56:24.201Z,9996
2017-06-22T04:57:25.468Z,10444
2017-06-22T04:58:26.719Z,11420
2017-06-22T04:59:28.078Z,11616
2017-06-22T05:00:29.353Z,11104
2017-06-22T05:01:30.604Z,9984
2017-06-22T05:02:31.861Z,9468
2017-06-22T05:03:33.119Z,8228
2017-06-22T05:04:34.380Z,7884
2017-06-22T05:05:35.648Z,6532
2017-06-22T05:06:36.891Z,5744
2017-06-22T05:07:38.150Z,5900
2017-06-22T05:08:39.399Z,6288
2017-06-22T05:09:40.654Z,6236
2017-06-22T05:10:41.935Z,5924
2017-06-22T05:11:43.170Z,5416
2017-06-22T05:12:44.514Z,5544
2017-06-22T05:13:45.770Z,6180
2017-06-22T05:14:47.061Z,6940
2017-06-22T05:15:48.296Z,7584
2017-06-22T05:16:49.551Z,8180
2017-06-22T05:17:50.803Z,8764
2017-06-22T05:18:52.127Z,9308
2017-06-22T05:19:53.431Z,9892
2017-06-22T05:20:54.680Z,10800
2017-06-22T05:21:55.956Z,11652
2017-06-22T05:22:57.230Z,15168
2017-06-22T05:23:58.497Z,14400
2017-06-22T05:24:59.752Z,11536
2017-06-22T05:26:01.007Z,12128
2017-06-22T05:27:02.268Z,14624
2017-06-22T05:28:03.527Z,17696
2017-06-22T05:29:04.817Z,17984
2017-06-22T05:30:06.163Z,18688
2017-06-22T05:31:07.421Z,18976
2017-06-22T05:32:08.689Z,19680
2017-06-22T05:33:10.027Z,20256
2017-06-22T05:34:11.297Z,20320
2017-06-22T05:35:12.546Z,20448
2017-06-22T05:36:13.875Z,20640
2017-06-22T05:37:15.124Z,21056
2017-06-22T05:38:16.384Z,22016
2017-06-22T05:39:17.635Z,22336
2017-06-22T05:40:18.893Z,22976
2017-06-22T05:41:20.232Z,23424
2017-06-22T05:42:21.533Z,23488
2017-06-22T05:43:22.736Z,23552
2017-06-22T05:44:23.995Z,24384
2017-06-22T05:45:25.248Z,24800
2017-06-22T05:46:26.515Z,25280
2017-06-22T05:47:27.770Z,26080
2017-06-22T05:48:29.029Z,26656
2017-06-22T05:49:30.348Z,26784
2017-06-22T05:50:31.705Z,26624
2017-06-22T05:51:32.927Z,27072
2017-06-22T05:52:34.177Z,27616
2017-06-22T05:53:35.450Z,27744
2017-06-22T05:54:36.690Z,28128
2017-06-22T05:55:37.947Z,28512
2017-06-22T05:56:39.193Z,29376
2017-06-22T05:57:40.450Z,29824
2017-06-22T05:58:41.715Z,30400
2017-06-22T05:59:43.059Z,30464
2017-06-22T06:00:44.335Z,31168
2017-06-22T06:01:45.611Z,31840
2017-06-22T06:02:46.849Z,32000
2017-06-22T06:03:48.157Z,31104
2017-06-22T06:04:49.410Z,32224
2017-06-22T06:05:50.661Z,32672
2017-06-22T06:06:51.937Z,33024
2017-06-22T06:07:53.259Z,33728
2017-06-22T06:08:54.469Z,33728
2017-06-22T06:09:55.742Z,34272
2017-06-22T06:10:56.984Z,35104
2017-06-22T06:11:58.323Z,35904
2017-06-22T06:12:59.574Z,36288
2017-06-22T06:14:00.833Z,36192
2017-06-22T06:15:02.134Z,36352
2017-06-22T06:16:03.353Z,36192
2017-06-22T06:17:04.608Z,37120
2017-06-22T06:18:05.954Z,38304
2017-06-22T06:19:07.150Z,38592
2017-06-22T06:20:08.473Z,38176
2017-06-22T06:21:09.740Z,41056
2017-06-22T06:22:11.001Z,37248
2017-06-22T06:23:12.266Z,40512
2017-06-22T06:24:13.509Z,35136
2017-06-22T06:25:14.770Z,36896
2017-06-22T06:26:16.040Z,36320
2017-06-22T06:27:17.313Z,39648
2017-06-22T06:28:18.549Z,39104
2017-06-22T06:29:19.907Z,37440
2017-06-22T06:30:21.286Z,36672
2017-06-22T06:31:22.566Z,37728
2017-06-22T06:32:23.830Z,37920
2017-06-22T06:33:25.080Z,38240
2017-06-22T06:34:26.329Z,38208
2017-06-22T06:35:27.588Z,37056
2017-06-22T06:36:28.851Z,37440
2017-06-22T06:37:30.185Z,37952
2017-06-22T06:38:31.658Z,38144
2017-06-22T06:39:32.881Z,39712
2017-06-22T06:40:34.166Z,39328
2017-06-22T06:41:35.408Z,39200
2017-06-22T06:42:36.670Z,41888
2017-06-22T06:43:37.970Z,41216
2017-06-22T06:44:39.228Z,41728
2017-06-22T06:45:40.495Z,43648
2017-06-22T06:46:41.751Z,45120
2017-06-22T06:47:43.101Z,45376
2017-06-22T06:48:44.366Z,44416
2017-06-22T06:49:45.738Z,43648
2017-06-22T06:50:47.012Z,44768
2017-06-22T06:51:48.288Z,45376
2017-06-22T06:52:49.538Z,46016
2017-06-22T06:53:50.854Z,46112
2017-06-22T06:54:52.148Z,45472
2017-06-22T06:55:53.414Z,43104
2017-06-22T06:56:54.674Z,44512
2017-06-22T06:57:55.931Z,47328
2017-06-22T06:58:57.197Z,46944
2017-06-22T06:59:58.506Z,47200
2017-06-22T07:00:59.772Z,47456
2017-06-22T07:02:01.027Z,45152
2017-06-22T07:03:02.319Z,44768
2017-06-22T07:04:03.579Z,45120
2017-06-22T07:05:04.838Z,48512
2017-06-22T07:06:06.094Z,49632
2017-06-22T07:07:07.493Z,51264
2017-06-22T07:08:08.738Z,55296
2017-06-22T07:09:10.018Z,56128
2017-06-22T07:10:11.310Z,54208
2017-06-22T07:11:12.546Z,53024
2017-06-22T07:12:13.888Z,51488
2017-06-22T07:13:15.182Z,52224
2017-06-22T07:14:16.414Z,53600
2017-06-22T07:15:17.697Z,48032
2017-06-22T07:16:18.950Z,49216
2017-06-22T07:17:20.216Z,49888
2017-06-22T07:18:21.488Z,51680
2017-06-22T07:19:22.833Z,53440
2017-06-22T07:20:24.086Z,54304
2017-06-22T07:21:25.345Z,55552
2017-06-22T07:22:26.608Z,55872
2017-06-22T07:23:28.022Z,56768
2017-06-22T07:24:29.271Z,57856
2017-06-22T07:25:30.558Z,59392
2017-06-22T07:26:31.853Z,59168
2017-06-22T07:27:33.107Z,55584
2017-06-22T07:28:34.395Z,52352
2017-06-22T07:29:35.649Z,50336
2017-06-22T07:30:36.904Z,50016
2017-06-22T07:31:38.183Z,50912
2017-06-22T07:32:39.452Z,54176
2017-06-22T07:33:40.712Z,54336
2017-06-22T07:34:42.002Z,58080
2017-06-22T07:35:43.299Z,49024
2017-06-22T07:36:44.689Z,31200
2017-06-22T07:37:45.948Z,53536
2017-06-22T07:38:47.208Z,47168
2017-06-22T07:39:48.455Z,49344
2017-06-22T07:40:49.724Z,43104
2017-06-22T07:41:51.002Z,28736
2017-06-22T07:42:52.359Z,23872
2017-06-22T07:43:53.634Z,24960
2017-06-22T07:44:54.886Z,23072
2017-06-22T07:45:56.148Z,21248
2017-06-22T07:46:57.414Z,21536
2017-06-22T07:47:58.698Z,23648
2017-06-22T07:49:00.062Z,22464
2017-06-22T07:50:01.309Z,39360
2017-06-22T07:51:02.589Z,44160
2017-06-22T07:52:03.851Z,48832
2017-06-22T07:53:05.125Z,53728
2017-06-22T07:54:06.435Z,57376
2017-06-22T07:55:07.776Z,53696
2017-06-22T07:56:09.034Z,25184
2017-06-22T07:57:10.295Z,60192
2017-06-22T07:58:11.572Z,62720
2017-06-22T07:59:12.843Z,65312
2017-06-22T08:00:14.139Z,45536
2017-06-22T08:01:15.445Z,57280
2017-06-22T08:02:16.696Z,55136
2017-06-22T08:03:17.986Z,62144
2017-06-22T08:04:19.240Z,62560
2017-06-22T08:05:20.556Z,42240
2017-06-22T08:06:21.832Z,64480
2017-06-22T08:07:23.100Z,70400
2017-06-22T08:08:24.414Z,68000
2017-06-22T08:09:25.671Z,62112
2017-06-22T08:10:27.003Z,27904
2017-06-22T08:11:28.275Z,21312
2017-06-22T08:12:29.538Z,18208
2017-06-22T08:13:30.806Z,16384
2017-06-22T08:14:32.342Z,16056
2017-06-22T08:15:33.617Z,20480
2017-06-22T08:16:34.932Z,24864
2017-06-22T08:17:36.250Z,63776
2017-06-22T08:18:37.500Z,59648
2017-06-22T08:19:38.794Z,60256
2017-06-22T08:20:40.030Z,62720
2017-06-22T08:21:41.291Z,65792
2017-06-22T08:22:42.562Z,64512
2017-06-22T08:23:43.861Z,63072
2017-06-22T08:24:45.122Z,61952
2017-06-22T08:25:46.394Z,65216
2017-06-22T08:26:47.652Z,67424
2017-06-22T08:27:48.967Z,70112
2017-06-22T08:28:50.227Z,69120
2017-06-22T08:29:51.488Z,67648
2017-06-22T08:30:52.748Z,67360
2017-06-22T08:31:54.024Z,68032
2017-06-22T08:32:55.282Z,71968
2017-06-22T08:33:56.546Z,75904
2017-06-22T08:34:57.859Z,75584
2017-06-22T08:35:59.102Z,73504
2017-06-22T08:37:00.380Z,72928
2017-06-22T08:38:01.637Z,73504
2017-06-22T08:39:02.929Z,73696
2017-06-22T08:40:04.214Z,73280
2017-06-22T08:41:05.479Z,75488
2017-06-22T08:42:06.746Z,76768
2017-06-22T08:43:07.999Z,75968
2017-06-22T08:44:09.260Z,75072
2017-06-22T08:45:10.507Z,75200
2017-06-22T08:46:11.770Z,75616
2017-06-22T08:47:13.035Z,75872
2017-06-22T08:48:14.404Z,77536
2017-06-22T08:49:15.672Z,79168
2017-06-22T08:50:16.952Z,77024
2017-06-22T08:51:18.204Z,73120
2017-06-22T08:52:19.475Z,72864
2017-06-22T08:53:20.811Z,72608
2017-06-22T08:54:22.078Z,72032
2017-06-22T08:55:23.338Z,71424
2017-06-22T08:56:24.626Z,71200
2017-06-22T08:57:25.889Z,72640
2017-06-22T08:58:27.152Z,73472
2017-06-22T08:59:28.412Z,76256
2017-06-22T09:00:29.709Z,75904
2017-06-22T09:01:30.981Z,73792
2017-06-22T09:02:32.358Z,72896
2017-06-22T09:03:33.641Z,74688
2017-06-22T09:04:34.927Z,75232
2017-06-22T09:05:36.247Z,76064
2017-06-22T09:06:37.524Z,76352
2017-06-22T09:07:38.796Z,77312
2017-06-22T09:08:40.122Z,77600
2017-06-22T09:09:41.379Z,78464
2017-06-22T09:10:42.648Z,80320
2017-06-22T09:11:43.964Z,84544
2017-06-22T09:12:45.230Z,84448
2017-06-22T09:13:46.546Z,82528
2017-06-22T09:14:47.808Z,82336
2017-06-22T09:15:49.153Z,82272
2017-06-22T09:16:50.424Z,80608
2017-06-22T09:17:51.701Z,79744
2017-06-22T09:18:52.963Z,78112
2017-06-22T09:19:54.240Z,81600
2017-06-22T09:20:55.513Z,82624
2017-06-22T09:21:56.789Z,83936
2017-06-22T09:22:58.084Z,85952
2017-06-22T09:23:59.393Z,83776
2017-06-22T09:25:00.714Z,84192
2017-06-22T09:26:01.989Z,83456
2017-06-22T09:27:03.278Z,82880
2017-06-22T09:28:04.606Z,81696
2017-06-22T09:29:05.865Z,77888
2017-06-22T09:30:07.139Z,76832
2017-06-22T09:31:08.503Z,78400
2017-06-22T09:32:09.780Z,77792
2017-06-22T09:33:11.052Z,76032
2017-06-22T09:34:12.321Z,75712
2017-06-22T09:35:13.631Z,72640
2017-06-22T09:36:14.929Z,79360
2017-06-22T09:37:16.196Z,83744
2017-06-22T09:38:17.466Z,80736
2017-06-22T09:39:18.745Z,79104
2017-06-22T09:40:20.030Z,79424
2017-06-22T09:41:21.297Z,81376
2017-06-22T09:42:22.574Z,81056
2017-06-22T09:43:23.823Z,78624
2017-06-22T09:44:25.088Z,71552
2017-06-22T09:45:26.383Z,76960
2017-06-22T09:46:27.655Z,80736
2017-06-22T09:47:28.923Z,79360
2017-06-22T09:48:30.193Z,77824
2017-06-22T09:49:31.453Z,77824
2017-06-22T09:50:32.730Z,86944
2017-06-22T09:51:34.064Z,86464
2017-06-22T09:52:35.310Z,86016
2017-06-22T09:53:36.688Z,83296
2017-06-22T09:54:37.974Z,80032
2017-06-22T09:55:39.223Z,86816
2017-06-22T09:56:40.494Z,89216
2017-06-22T09:57:41.867Z,80832
2017-06-22T09:58:43.146Z,91904
2017-06-22T09:59:44.415Z,88992
2017-06-22T10:00:45.734Z,93984
2017-06-22T10:01:46.979Z,89888
2017-06-22T10:02:48.248Z,38048
2017-06-22T10:03:49.543Z,44480
2017-06-22T10:04:50.826Z,41088
2017-06-22T10:05:52.137Z,39712
2017-06-22T10:06:53.400Z,89280
2017-06-22T10:07:54.659Z,76736
2017-06-22T10:08:55.921Z,75232
2017-06-22T10:09:57.181Z,72704
2017-06-22T10:10:58.505Z,71872
2017-06-22T10:11:59.834Z,72928
2017-06-22T10:13:01.118Z,73824
2017-06-22T10:14:02.357Z,71520
2017-06-22T10:15:03.652Z,72000
2017-06-22T10:16:04.896Z,74080
2017-06-22T10:17:06.404Z,73408
2017-06-22T10:18:07.669Z,71904
2017-06-22T10:19:08.971Z,66848
2017-06-22T10:20:10.261Z,66464
2017-06-22T10:21:11.531Z,64736
2017-06-22T10:22:12.859Z,60896
2017-06-22T10:23:14.123Z,62816
2017-06-22T10:24:15.402Z,62784
2017-06-22T10:25:16.663Z,61600
2017-06-22T10:26:18.007Z,67136
2017-06-22T10:27:19.317Z,64928
2017-06-22T10:28:20.554Z,63840
2017-06-22T10:29:21.828Z,55936
2017-06-22T10:30:23.092Z,57536
2017-06-22T10:31:24.367Z,58720
2017-06-22T10:32:25.641Z,61568
2017-06-22T10:33:26.912Z,64800
2017-06-22T10:34:28.257Z,64640
2017-06-22T10:35:29.537Z,62464
2017-06-22T10:36:30.811Z,57888
2017-06-22T10:37:32.099Z,34304
2017-06-22T10:38:33.374Z,19808
2017-06-22T10:39:34.682Z,18624
2017-06-22T10:40:35.956Z,17984
2017-06-22T10:41:37.224Z,17888
2017-06-22T10:42:38.478Z,18400
2017-06-22T10:43:39.754Z,18560
2017-06-22T10:44:41.054Z,19360
2017-06-22T10:45:42.321Z,19712
2017-06-22T10:46:43.583Z,18880
2017-06-22T10:47:44.862Z,18112
2017-06-22T10:48:46.111Z,17312
2017-06-22T10:49:47.380Z,16232
2017-06-22T10:50:48.694Z,15908
2017-06-22T10:51:49.987Z,16960
2017-06-22T10:52:51.219Z,18432
2017-06-22T10:53:52.496Z,20064
2017-06-22T10:54:53.734Z,20768
2017-06-22T10:55:55.012Z,21088
2017-06-22T10:56:56.429Z,20640
2017-06-22T10:57:57.680Z,20352
2017-06-22T10:58:58.940Z,19968
2017-06-22T11:00:00.252Z,19872
2017-06-22T11:01:01.518Z,19392
2017-06-22T11:02:02.818Z,18208
2017-06-22T11:03:04.095Z,18624
2017-06-22T11:04:05.356Z,18752
2017-06-22T11:05:06.623Z,18528
2017-06-22T11:06:07.890Z,18656
2017-06-22T11:07:09.154Z,19008
2017-06-22T11:08:10.410Z,18848
2017-06-22T11:09:11.787Z,18528
2017-06-22T11:10:13.048Z,18176
2017-06-22T11:11:14.307Z,18016
2017-06-22T11:12:15.568Z,17920
2017-06-22T11:13:16.831Z,17856
2017-06-22T11:14:18.147Z,17664
2017-06-22T11:15:19.377Z,17384
2017-06-22T11:16:20.662Z,17036
2017-06-22T11:17:21.975Z,17108
2017-06-22T11:18:23.267Z,17284
2017-06-22T11:19:24.590Z,17200
2017-06-22T11:20:25.836Z,17136
2017-06-22T11:21:27.123Z,16912
2017-06-22T11:22:28.393Z,16888
2017-06-22T11:23:29.655Z,16636
2017-06-22T11:24:30.918Z,16316
2017-06-22T11:25:32.179Z,16148
2017-06-22T11:26:33.435Z,16148
2017-06-22T11:27:34.819Z,16052
2017-06-22T11:28:36.132Z,16164
2017-06-22T11:29:37.392Z,16560
2017-06-22T11:30:38.648Z,16576
2017-06-22T11:31:39.921Z,16240
2017-06-22T11:32:41.168Z,15992
2017-06-22T11:33:42.566Z,16172
2017-06-22T11:34:43.797Z,16232
2017-06-22T11:35:45.066Z,16356
2017-06-22T11:36:46.425Z,16376
2017-06-22T11:37:47.690Z,15972
2017-06-22T11:38:48.982Z,15384
2017-06-22T11:39:50.280Z,15352
2017-06-22T11:40:51.523Z,15244
2017-06-22T11:41:52.795Z,15232
2017-06-22T11:42:54.079Z,15348
2017-06-22T11:43:55.344Z,15340
2017-06-22T11:44:56.708Z,15284
2017-06-22T11:45:57.972Z,15032
2017-06-22T11:46:59.225Z,14624
2017-06-22T11:48:00.483Z,14360
2017-06-22T11:49:01.757Z,13936
2017-06-22T11:50:02.998Z,13544
2017-06-22T11:51:04.253Z,13296
2017-06-22T11:52:05.506Z,13144
2017-06-22T11:53:06.782Z,13024
2017-06-22T11:54:08.034Z,12976
2017-06-22T11:55:09.355Z,12800
2017-06-22T11:56:10.622Z,12480
2017-06-22T11:57:11.887Z,12192
2017-06-22T11:58:13.153Z,12076
2017-06-22T11:59:14.487Z,12132
2017-06-22T12:00:15.778Z,12028
2017-06-22T12:01:17.037Z,11896
2017-06-22T12:02:18.427Z,11784
2017-06-22T12:03:19.740Z,11500
2017-06-22T12:04:20.996Z,11396
2017-06-22T12:05:22.270Z,11408
2017-06-22T12:06:23.567Z,11372
2017-06-22T12:07:24.918Z,11268
2017-06-22T12:08:26.155Z,11024
2017-06-22T12:09:27.406Z,10928
2017-06-22T12:10:28.667Z,10968
2017-06-22T12:11:29.920Z,11064
2017-06-22T12:12:31.178Z,11168
2017-06-22T12:13:32.444Z,11128
2017-06-22T12:14:33.705Z,10524
2017-06-22T12:15:34.966Z,10288
2017-06-22T12:16:36.236Z,10432
2017-06-22T12:17:37.468Z,10480
2017-06-22T12:18:38.715Z,10476
2017-06-22T12:19:40.040Z,10448
2017-06-22T12:20:41.318Z,10220
2017-06-22T12:21:42.820Z,10196
2017-06-22T12:22:44.115Z,9668
2017-06-22T12:23:45.366Z,9124
2017-06-22T12:24:46.669Z,9172
2017-06-22T12:25:48.017Z,9368
2017-06-22T12:26:49.271Z,9688
2017-06-22T12:27:50.563Z,9732
2017-06-22T12:28:51.805Z,9976
2017-06-22T12:29:53.054Z,9652
2017-06-22T12:30:54.352Z,9824
2017-06-22T12:31:55.706Z,9916
2017-06-22T12:32:56.987Z,9756
2017-06-22T12:33:58.296Z,9852
2017-06-22T12:34:59.586Z,9788
2017-06-22T12:36:00.823Z,9784
2017-06-22T12:37:02.115Z,9616
2017-06-22T12:38:03.340Z,9188
2017-06-22T12:39:04.622Z,8852
2017-06-22T12:40:05.892Z,8528
2017-06-22T12:41:07.157Z,8512
2017-06-22T12:42:08.411Z,8792
2017-06-22T12:43:09.807Z,9380
2017-06-22T12:44:10.966Z,9896
2017-06-22T12:45:12.231Z,10300
2017-06-22T12:46:13.488Z,10524
2017-06-22T12:47:14.738Z,10456
2017-06-22T12:48:16.095Z,10280
2017-06-22T12:49:17.336Z,10080
2017-06-22T12:50:18.612Z,10096
2017-06-22T12:51:19.871Z,10196
2017-06-22T12:52:21.141Z,10204
2017-06-22T12:53:22.388Z,9980
2017-06-22T12:54:23.669Z,9748
2017-06-22T12:55:24.955Z,9484
2017-06-22T12:56:26.190Z,9196
2017-06-22T12:57:27.469Z,9204
2017-06-22T12:58:28.756Z,9232
2017-06-22T12:59:29.986Z,9084
2017-06-22T13:00:31.255Z,9060
2017-06-22T13:01:32.544Z,9124
2017-06-22T13:02:33.833Z,8804
2017-06-22T13:03:35.119Z,8640
2017-06-22T13:04:36.460Z,8484
2017-06-22T13:05:37.716Z,7924
2017-06-22T13:06:38.978Z,7348
2017-06-22T13:07:40.238Z,7308
2017-06-22T13:08:41.503Z,7428
2017-06-22T13:09:42.776Z,7636
2017-06-22T13:10:44.029Z,7896
2017-06-22T13:11:45.288Z,8028
2017-06-22T13:12:46.547Z,8164
2017-06-22T13:13:47.908Z,8196
2017-06-22T13:14:49.177Z,8180
2017-06-22T13:15:50.424Z,8188
2017-06-22T13:16:51.682Z,8132
2017-06-22T13:17:52.935Z,7968
2017-06-22T13:18:54.226Z,7928
2017-06-22T13:19:55.461Z,7916
2017-06-22T13:20:56.751Z,7912
2017-06-22T13:21:58.049Z,7904
2017-06-22T13:22:59.267Z,7860
2017-06-22T13:24:00.546Z,7764
2017-06-22T13:25:01.795Z,7676
2017-06-22T13:26:03.065Z,7504
2017-06-22T13:27:04.318Z,7356
2017-06-22T13:28:05.572Z,7140
2017-06-22T13:29:06.823Z,6932
2017-06-22T13:30:08.075Z,6944
2017-06-22T13:31:09.337Z,7032
2017-06-22T13:32:10.611Z,6984
2017-06-22T13:33:11.862Z,6940
2017-06-22T13:34:13.126Z,6956
2017-06-22T13:35:14.424Z,6964
2017-06-22T13:36:15.679Z,6868
2017-06-22T13:37:16.948Z,6740
2017-06-22T13:38:18.521Z,6648
2017-06-22T13:39:19.778Z,6548